sensor_id;sensor_type;location;lat;lon;timestamp;P1;durP1;ratioP1;P2;durP2;ratioP2
84905;SDS011;75170;42.116;21.740;2024-01-07T00:01:50;12.50;;;6.18;;
84905;SDS011;75170;42.116;21.740;2024-01-07T00:04:16;13.85;;;6.03;;
84905;SDS011;75170;42.116;21.740;2024-01-07T00:06:42;10.98;;;5.93;;
84905;SDS011;75170;42.116;21.740;2024-01-07T00:09:10;12.55;;;5.30;;
84905;SDS011;75170;42.116;21.740;2024-01-07T00:11:36;8.20;;;4.65;;
84905;SDS011;75170;42.116;21.740;2024-01-07T00:14:02;12.18;;;5.40;;
84905;SDS011;75170;42.116;21.740;2024-01-07T00:16:28;12.48;;;5.35;;
84905;SDS011;75170;42.116;21.740;2024-01-07T00:18:54;9.43;;;5.57;;
84905;SDS011;75170;42.116;21.740;2024-01-07T00:21:20;11.63;;;4.82;;
84905;SDS011;75170;42.116;21.740;2024-01-07T00:23:46;13.38;;;7.45;;
84905;SDS011;75170;42.116;21.740;2024-01-07T00:26:12;14.45;;;5.38;;
84905;SDS011;75170;42.116;21.740;2024-01-07T00:28:39;19.55;;;8.18;;
84905;SDS011;75170;42.116;21.740;2024-01-07T00:31:05;24.13;;;12.57;;
84905;SDS011;75170;42.116;21.740;2024-01-07T00:33:34;17.63;;;8.23;;
84905;SDS011;75170;42.116;21.740;2024-01-07T00:36:01;14.20;;;6.47;;
84905;SDS011;75170;42.116;21.740;2024-01-07T00:38:27;6.82;;;2.70;;
84905;SDS011;75170;42.116;21.740;2024-01-07T00:40:53;9.15;;;2.50;;
84905;SDS011;75170;42.116;21.740;2024-01-07T00:43:19;6.18;;;3.08;;
84905;SDS011;75170;42.116;21.740;2024-01-07T00:45:46;6.78;;;3.00;;
84905;SDS011;75170;42.116;21.740;2024-01-07T00:48:12;5.63;;;2.83;;
84905;SDS011;75170;42.116;21.740;2024-01-07T00:50:38;5.88;;;2.90;;
84905;SDS011;75170;42.116;21.740;2024-01-07T00:53:04;5.18;;;2.75;;
84905;SDS011;75170;42.116;21.740;2024-01-07T00:55:30;5.57;;;1.90;;
84905;SDS011;75170;42.116;21.740;2024-01-07T00:57:56;3.47;;;1.92;;
84905;SDS011;75170;42.116;21.740;2024-01-07T01:00:22;4.18;;;2.03;;
84905;SDS011;75170;42.116;21.740;2024-01-07T01:02:49;2.80;;;1.88;;
84905;SDS011;75170;42.116;21.740;2024-01-07T01:05:15;2.72;;;1.50;;
84905;SDS011;75170;42.116;21.740;2024-01-07T01:07:41;3.00;;;1.65;;
84905;SDS011;75170;42.116;21.740;2024-01-07T01:10:07;3.50;;;1.80;;
84905;SDS011;75170;42.116;21.740;2024-01-07T01:12:33;3.65;;;1.90;;
84905;SDS011;75170;42.116;21.740;2024-01-07T01:14:59;4.38;;;2.50;;
84905;SDS011;75170;42.116;21.740;2024-01-07T01:17:26;7.60;;;4.50;;
84905;SDS011;75170;42.116;21.740;2024-01-07T01:19:52;4.28;;;2.20;;
84905;SDS011;75170;42.116;21.740;2024-01-07T01:22:18;14.63;;;8.27;;
84905;SDS011;75170;42.116;21.740;2024-01-07T01:24:44;11.52;;;6.20;;
84905;SDS011;75170;42.116;21.740;2024-01-07T01:27:11;10.55;;;5.75;;
84905;SDS011;75170;42.116;21.740;2024-01-07T01:29:39;4.95;;;1.98;;
84905;SDS011;75170;42.116;21.740;2024-01-07T01:32:05;11.73;;;5.93;;
84905;SDS011;75170;42.116;21.740;2024-01-07T01:34:31;8.48;;;4.03;;
84905;SDS011;75170;42.116;21.740;2024-01-07T01:36:57;7.75;;;2.85;;
84905;SDS011;75170;42.116;21.740;2024-01-07T01:39:24;6.65;;;3.65;;
84905;SDS011;75170;42.116;21.740;2024-01-07T01:41:50;7.18;;;2.80;;
84905;SDS011;75170;42.116;21.740;2024-01-07T01:44:16;2.88;;;1.80;;
84905;SDS011;75170;42.116;21.740;2024-01-07T01:46:42;4.38;;;2.40;;
84905;SDS011;75170;42.116;21.740;2024-01-07T01:49:10;6.70;;;3.10;;
84905;SDS011;75170;42.116;21.740;2024-01-07T01:51:37;5.50;;;2.65;;
84905;SDS011;75170;42.116;21.740;2024-01-07T01:54:03;3.70;;;2.10;;
84905;SDS011;75170;42.116;21.740;2024-01-07T01:56:30;6.15;;;2.47;;
84905;SDS011;75170;42.116;21.740;2024-01-07T01:58:56;3.55;;;2.10;;
84905;SDS011;75170;42.116;21.740;2024-01-07T02:01:22;5.20;;;2.70;;
84905;SDS011;75170;42.116;21.740;2024-01-07T02:03:49;3.58;;;2.33;;
84905;SDS011;75170;42.116;21.740;2024-01-07T02:06:16;3.58;;;2.15;;
84905;SDS011;75170;42.116;21.740;2024-01-07T02:08:42;5.65;;;2.80;;
84905;SDS011;75170;42.116;21.740;2024-01-07T02:11:18;5.47;;;2.47;;
84905;SDS011;75170;42.116;21.740;2024-01-07T02:13:45;3.75;;;2.30;;
84905;SDS011;75170;42.116;21.740;2024-01-07T02:16:12;4.28;;;2.30;;
84905;SDS011;75170;42.116;21.740;2024-01-07T02:18:40;3.75;;;2.10;;
84905;SDS011;75170;42.116;21.740;2024-01-07T02:21:07;4.00;;;2.15;;
84905;SDS011;75170;42.116;21.740;2024-01-07T02:23:33;3.45;;;2.00;;
84905;SDS011;75170;42.116;21.740;2024-01-07T02:25:59;4.97;;;2.40;;
84905;SDS011;75170;42.116;21.740;2024-01-07T02:28:25;6.00;;;3.03;;
84905;SDS011;75170;42.116;21.740;2024-01-07T02:30:51;4.57;;;2.30;;
84905;SDS011;75170;42.116;21.740;2024-01-07T02:33:17;5.55;;;2.42;;
84905;SDS011;75170;42.116;21.740;2024-01-07T02:35:43;5.03;;;2.80;;
84905;SDS011;75170;42.116;21.740;2024-01-07T02:38:09;5.53;;;2.58;;
84905;SDS011;75170;42.116;21.740;2024-01-07T02:40:35;5.00;;;2.10;;
84905;SDS011;75170;42.116;21.740;2024-01-07T02:43:01;3.67;;;1.83;;
84905;SDS011;75170;42.116;21.740;2024-01-07T02:45:28;3.22;;;2.00;;
84905;SDS011;75170;42.116;21.740;2024-01-07T02:47:54;2.83;;;1.85;;
84905;SDS011;75170;42.116;21.740;2024-01-07T02:50:20;4.45;;;2.40;;
84905;SDS011;75170;42.116;21.740;2024-01-07T02:52:46;4.30;;;2.60;;
84905;SDS011;75170;42.116;21.740;2024-01-07T02:55:13;2.75;;;1.90;;
84905;SDS011;75170;42.116;21.740;2024-01-07T02:57:39;7.03;;;3.00;;
84905;SDS011;75170;42.116;21.740;2024-01-07T03:00:05;4.32;;;2.10;;
84905;SDS011;75170;42.116;21.740;2024-01-07T03:02:32;5.82;;;2.72;;
84905;SDS011;75170;42.116;21.740;2024-01-07T03:05:00;5.90;;;3.50;;
84905;SDS011;75170;42.116;21.740;2024-01-07T03:07:26;6.00;;;3.70;;
84905;SDS011;75170;42.116;21.740;2024-01-07T03:09:52;5.57;;;3.35;;
84905;SDS011;75170;42.116;21.740;2024-01-07T03:12:18;5.40;;;3.22;;
84905;SDS011;75170;42.116;21.740;2024-01-07T03:14:44;6.00;;;3.10;;
84905;SDS011;75170;42.116;21.740;2024-01-07T03:17:10;6.10;;;4.10;;
84905;SDS011;75170;42.116;21.740;2024-01-07T03:19:37;6.20;;;3.67;;
84905;SDS011;75170;42.116;21.740;2024-01-07T03:22:04;7.13;;;3.03;;
84905;SDS011;75170;42.116;21.740;2024-01-07T03:24:32;5.25;;;3.28;;
84905;SDS011;75170;42.116;21.740;2024-01-07T03:26:58;5.10;;;2.70;;
84905;SDS011;75170;42.116;21.740;2024-01-07T03:29:25;6.78;;;2.83;;
84905;SDS011;75170;42.116;21.740;2024-01-07T03:31:51;5.90;;;3.00;;
84905;SDS011;75170;42.116;21.740;2024-01-07T03:34:18;4.65;;;3.15;;
84905;SDS011;75170;42.116;21.740;2024-01-07T03:36:44;5.05;;;3.38;;
84905;SDS011;75170;42.116;21.740;2024-01-07T03:39:11;5.05;;;2.85;;
84905;SDS011;75170;42.116;21.740;2024-01-07T03:41:37;5.60;;;2.80;;
84905;SDS011;75170;42.116;21.740;2024-01-07T03:44:03;4.45;;;2.33;;
84905;SDS011;75170;42.116;21.740;2024-01-07T03:46:29;4.65;;;2.90;;
84905;SDS011;75170;42.116;21.740;2024-01-07T03:48:55;6.03;;;3.60;;
84905;SDS011;75170;42.116;21.740;2024-01-07T03:51:22;7.85;;;4.28;;
84905;SDS011;75170;42.116;21.740;2024-01-07T03:53:48;7.85;;;4.35;;
84905;SDS011;75170;42.116;21.740;2024-01-07T03:56:14;8.63;;;4.28;;
84905;SDS011;75170;42.116;21.740;2024-01-07T03:58:40;6.45;;;3.53;;
84905;SDS011;75170;42.116;21.740;2024-01-07T04:01:06;6.82;;;3.70;;
84905;SDS011;75170;42.116;21.740;2024-01-07T04:03:32;5.43;;;3.60;;
84905;SDS011;75170;42.116;21.740;2024-01-07T04:05:58;8.55;;;4.38;;
84905;SDS011;75170;42.116;21.740;2024-01-07T04:08:24;7.15;;;4.35;;
84905;SDS011;75170;42.116;21.740;2024-01-07T04:10:51;7.00;;;4.03;;
84905;SDS011;75170;42.116;21.740;2024-01-07T04:13:17;9.95;;;5.15;;
84905;SDS011;75170;42.116;21.740;2024-01-07T04:15:43;8.80;;;5.30;;
84905;SDS011;75170;42.116;21.740;2024-01-07T04:18:09;11.82;;;6.57;;
84905;SDS011;75170;42.116;21.740;2024-01-07T04:20:35;11.32;;;6.90;;
84905;SDS011;75170;42.116;21.740;2024-01-07T04:23:01;10.68;;;6.18;;
84905;SDS011;75170;42.116;21.740;2024-01-07T04:25:28;11.73;;;6.93;;
84905;SDS011;75170;42.116;21.740;2024-01-07T04:27:54;9.02;;;5.30;;
84905;SDS011;75170;42.116;21.740;2024-01-07T04:30:20;6.63;;;2.97;;
84905;SDS011;75170;42.116;21.740;2024-01-07T04:32:46;2.83;;;1.38;;
84905;SDS011;75170;42.116;21.740;2024-01-07T04:35:12;2.65;;;1.23;;
84905;SDS011;75170;42.116;21.740;2024-01-07T04:37:38;1.17;;;0.85;;
84905;SDS011;75170;42.116;21.740;2024-01-07T04:40:05;1.90;;;1.13;;
84905;SDS011;75170;42.116;21.740;2024-01-07T04:42:31;1.60;;;1.00;;
84905;SDS011;75170;42.116;21.740;2024-01-07T04:44:57;3.47;;;2.58;;
84905;SDS011;75170;42.116;21.740;2024-01-07T04:47:27;3.10;;;1.83;;
84905;SDS011;75170;42.116;21.740;2024-01-07T04:49:53;2.70;;;1.30;;
84905;SDS011;75170;42.116;21.740;2024-01-07T04:52:21;2.35;;;1.02;;
84905;SDS011;75170;42.116;21.740;2024-01-07T04:54:47;1.23;;;0.90;;
84905;SDS011;75170;42.116;21.740;2024-01-07T04:57:13;1.13;;;0.95;;
84905;SDS011;75170;42.116;21.740;2024-01-07T04:59:39;4.05;;;2.00;;
84905;SDS011;75170;42.116;21.740;2024-01-07T05:02:05;4.18;;;2.40;;
84905;SDS011;75170;42.116;21.740;2024-01-07T05:04:31;6.15;;;2.40;;
84905;SDS011;75170;42.116;21.740;2024-01-07T05:06:58;7.07;;;2.70;;
84905;SDS011;75170;42.116;21.740;2024-01-07T05:09:24;6.85;;;2.97;;
84905;SDS011;75170;42.116;21.740;2024-01-07T05:11:50;7.20;;;3.50;;
84905;SDS011;75170;42.116;21.740;2024-01-07T05:14:16;7.32;;;3.80;;
84905;SDS011;75170;42.116;21.740;2024-01-07T05:16:42;5.85;;;4.07;;
84905;SDS011;75170;42.116;21.740;2024-01-07T05:19:08;5.50;;;4.30;;
84905;SDS011;75170;42.116;21.740;2024-01-07T05:21:34;4.78;;;3.40;;
84905;SDS011;75170;42.116;21.740;2024-01-07T05:24:00;4.07;;;2.85;;
84905;SDS011;75170;42.116;21.740;2024-01-07T05:26:27;4.97;;;3.70;;
84905;SDS011;75170;42.116;21.740;2024-01-07T05:28:53;4.57;;;2.95;;
84905;SDS011;75170;42.116;21.740;2024-01-07T05:31:19;4.88;;;2.78;;
84905;SDS011;75170;42.116;21.740;2024-01-07T05:33:45;3.33;;;1.83;;
84905;SDS011;75170;42.116;21.740;2024-01-07T05:36:12;3.83;;;1.50;;
84905;SDS011;75170;42.116;21.740;2024-01-07T05:38:38;2.80;;;1.15;;
84905;SDS011;75170;42.116;21.740;2024-01-07T05:41:04;3.17;;;1.40;;
84905;SDS011;75170;42.116;21.740;2024-01-07T05:43:30;2.95;;;1.83;;
84905;SDS011;75170;42.116;21.740;2024-01-07T05:45:56;3.53;;;1.88;;
84905;SDS011;75170;42.116;21.740;2024-01-07T05:48:23;2.67;;;1.42;;
84905;SDS011;75170;42.116;21.740;2024-01-07T05:50:49;1.90;;;1.20;;
84905;SDS011;75170;42.116;21.740;2024-01-07T05:53:16;3.03;;;1.50;;
84905;SDS011;75170;42.116;21.740;2024-01-07T05:55:43;1.40;;;1.00;;
84905;SDS011;75170;42.116;21.740;2024-01-07T05:58:09;2.08;;;1.30;;
84905;SDS011;75170;42.116;21.740;2024-01-07T06:00:35;8.00;;;4.07;;
84905;SDS011;75170;42.116;21.740;2024-01-07T06:03:01;20.63;;;12.07;;
84905;SDS011;75170;42.116;21.740;2024-01-07T06:05:27;19.23;;;12.07;;
84905;SDS011;75170;42.116;21.740;2024-01-07T06:07:53;16.17;;;10.50;;
84905;SDS011;75170;42.116;21.740;2024-01-07T06:10:20;18.77;;;11.65;;
84905;SDS011;75170;42.116;21.740;2024-01-07T06:12:46;16.27;;;9.77;;
84905;SDS011;75170;42.116;21.740;2024-01-07T06:15:13;16.48;;;10.57;;
84905;SDS011;75170;42.116;21.740;2024-01-07T06:17:39;19.20;;;11.32;;
84905;SDS011;75170;42.116;21.740;2024-01-07T06:20:05;18.08;;;10.93;;
84905;SDS011;75170;42.116;21.740;2024-01-07T06:22:33;17.35;;;10.65;;
84905;SDS011;75170;42.116;21.740;2024-01-07T06:24:59;17.77;;;11.13;;
84905;SDS011;75170;42.116;21.740;2024-01-07T06:27:25;16.92;;;11.30;;
84905;SDS011;75170;42.116;21.740;2024-01-07T06:29:51;16.65;;;11.48;;
84905;SDS011;75170;42.116;21.740;2024-01-07T06:32:17;16.00;;;10.88;;
84905;SDS011;75170;42.116;21.740;2024-01-07T06:34:43;14.30;;;8.65;;
84905;SDS011;75170;42.116;21.740;2024-01-07T06:37:09;13.77;;;9.02;;
84905;SDS011;75170;42.116;21.740;2024-01-07T06:39:35;10.20;;;6.18;;
84905;SDS011;75170;42.116;21.740;2024-01-07T06:42:03;19.25;;;9.73;;
84905;SDS011;75170;42.116;21.740;2024-01-07T06:44:29;16.23;;;9.15;;
84905;SDS011;75170;42.116;21.740;2024-01-07T06:46:55;17.15;;;9.38;;
84905;SDS011;75170;42.116;21.740;2024-01-07T06:49:21;36.15;;;18.63;;
84905;SDS011;75170;42.116;21.740;2024-01-07T06:51:47;38.10;;;24.23;;
84905;SDS011;75170;42.116;21.740;2024-01-07T06:54:13;42.85;;;24.35;;
84905;SDS011;75170;42.116;21.740;2024-01-07T06:56:39;50.72;;;29.95;;
84905;SDS011;75170;42.116;21.740;2024-01-07T06:59:06;52.60;;;29.58;;
84905;SDS011;75170;42.116;21.740;2024-01-07T07:01:32;55.13;;;30.23;;
84905;SDS011;75170;42.116;21.740;2024-01-07T07:03:58;45.35;;;28.55;;
84905;SDS011;75170;42.116;21.740;2024-01-07T07:06:25;52.70;;;31.13;;
84905;SDS011;75170;42.116;21.740;2024-01-07T07:08:51;54.58;;;31.15;;
84905;SDS011;75170;42.116;21.740;2024-01-07T07:11:17;61.92;;;34.67;;
84905;SDS011;75170;42.116;21.740;2024-01-07T07:13:44;58.38;;;34.08;;
84905;SDS011;75170;42.116;21.740;2024-01-07T07:16:10;52.25;;;31.20;;
84905;SDS011;75170;42.116;21.740;2024-01-07T07:18:37;54.28;;;31.10;;
84905;SDS011;75170;42.116;21.740;2024-01-07T07:21:03;39.72;;;22.02;;
84905;SDS011;75170;42.116;21.740;2024-01-07T07:23:29;41.42;;;23.15;;
84905;SDS011;75170;42.116;21.740;2024-01-07T07:25:55;28.65;;;17.98;;
84905;SDS011;75170;42.116;21.740;2024-01-07T07:28:22;24.60;;;16.85;;
84905;SDS011;75170;42.116;21.740;2024-01-07T07:30:48;34.17;;;19.42;;
84905;SDS011;75170;42.116;21.740;2024-01-07T07:33:14;35.25;;;19.80;;
84905;SDS011;75170;42.116;21.740;2024-01-07T07:35:40;32.22;;;18.67;;
84905;SDS011;75170;42.116;21.740;2024-01-07T07:38:07;38.08;;;20.92;;
84905;SDS011;75170;42.116;21.740;2024-01-07T07:40:33;54.67;;;30.95;;
84905;SDS011;75170;42.116;21.740;2024-01-07T07:42:59;104.88;;;61.72;;
84905;SDS011;75170;42.116;21.740;2024-01-07T07:45:25;110.28;;;65.15;;
84905;SDS011;75170;42.116;21.740;2024-01-07T07:47:51;103.85;;;62.50;;
84905;SDS011;75170;42.116;21.740;2024-01-07T07:50:17;83.40;;;52.78;;
84905;SDS011;75170;42.116;21.740;2024-01-07T07:52:44;78.10;;;48.10;;
84905;SDS011;75170;42.116;21.740;2024-01-07T07:55:10;89.43;;;56.83;;
84905;SDS011;75170;42.116;21.740;2024-01-07T07:57:36;85.93;;;53.78;;
84905;SDS011;75170;42.116;21.740;2024-01-07T08:00:06;108.32;;;70.07;;
84905;SDS011;75170;42.116;21.740;2024-01-07T08:02:32;100.88;;;63.85;;
84905;SDS011;75170;42.116;21.740;2024-01-07T08:04:58;106.55;;;66.03;;
84905;SDS011;75170;42.116;21.740;2024-01-07T08:07:25;100.32;;;67.07;;
84905;SDS011;75170;42.116;21.740;2024-01-07T08:09:51;105.85;;;71.43;;
84905;SDS011;75170;42.116;21.740;2024-01-07T08:12:18;81.70;;;51.50;;
84905;SDS011;75170;42.116;21.740;2024-01-07T08:14:44;68.90;;;47.20;;
84905;SDS011;75170;42.116;21.740;2024-01-07T08:17:10;58.55;;;38.17;;
84905;SDS011;75170;42.116;21.740;2024-01-07T08:19:36;62.25;;;39.83;;
84905;SDS011;75170;42.116;21.740;2024-01-07T08:22:05;60.47;;;42.00;;
84905;SDS011;75170;42.116;21.740;2024-01-07T08:24:31;62.88;;;40.25;;
84905;SDS011;75170;42.116;21.740;2024-01-07T08:26:58;60.17;;;40.03;;
84905;SDS011;75170;42.116;21.740;2024-01-07T08:29:24;53.53;;;33.42;;
84905;SDS011;75170;42.116;21.740;2024-01-07T08:31:50;78.05;;;48.20;;
84905;SDS011;75170;42.116;21.740;2024-01-07T08:34:16;66.85;;;40.60;;
84905;SDS011;75170;42.116;21.740;2024-01-07T08:36:42;77.50;;;45.15;;
84905;SDS011;75170;42.116;21.740;2024-01-07T08:39:08;78.75;;;50.55;;
84905;SDS011;75170;42.116;21.740;2024-01-07T08:41:36;84.30;;;51.35;;
84905;SDS011;75170;42.116;21.740;2024-01-07T08:44:02;72.90;;;44.28;;
84905;SDS011;75170;42.116;21.740;2024-01-07T08:46:28;72.03;;;43.85;;
84905;SDS011;75170;42.116;21.740;2024-01-07T08:48:55;95.55;;;57.55;;
84905;SDS011;75170;42.116;21.740;2024-01-07T08:51:21;81.55;;;50.95;;
84905;SDS011;75170;42.116;21.740;2024-01-07T08:53:48;86.72;;;53.67;;
84905;SDS011;75170;42.116;21.740;2024-01-07T08:56:14;90.95;;;60.30;;
84905;SDS011;75170;42.116;21.740;2024-01-07T08:58:41;109.35;;;70.10;;
84905;SDS011;75170;42.116;21.740;2024-01-07T09:01:07;115.60;;;66.82;;
84905;SDS011;75170;42.116;21.740;2024-01-07T09:03:33;137.07;;;78.57;;
84905;SDS011;75170;42.116;21.740;2024-01-07T09:05:59;133.80;;;78.55;;
84905;SDS011;75170;42.116;21.740;2024-01-07T09:08:25;146.45;;;84.32;;
84905;SDS011;75170;42.116;21.740;2024-01-07T09:10:52;144.57;;;81.57;;
84905;SDS011;75170;42.116;21.740;2024-01-07T09:13:18;120.65;;;71.15;;
84905;SDS011;75170;42.116;21.740;2024-01-07T09:15:44;67.20;;;41.10;;
84905;SDS011;75170;42.116;21.740;2024-01-07T09:18:10;34.90;;;21.20;;
84905;SDS011;75170;42.116;21.740;2024-01-07T09:20:36;13.48;;;8.45;;
84905;SDS011;75170;42.116;21.740;2024-01-07T09:23:02;12.02;;;6.32;;
84905;SDS011;75170;42.116;21.740;2024-01-07T09:25:29;9.75;;;4.65;;
84905;SDS011;75170;42.116;21.740;2024-01-07T09:27:55;7.30;;;3.63;;
84905;SDS011;75170;42.116;21.740;2024-01-07T09:30:21;4.18;;;2.75;;
84905;SDS011;75170;42.116;21.740;2024-01-07T09:32:47;9.98;;;2.72;;
84905;SDS011;75170;42.116;21.740;2024-01-07T09:35:13;3.03;;;1.95;;
84905;SDS011;75170;42.116;21.740;2024-01-07T09:37:39;5.05;;;2.15;;
84905;SDS011;75170;42.116;21.740;2024-01-07T09:40:06;9.25;;;4.10;;
84905;SDS011;75170;42.116;21.740;2024-01-07T09:42:33;13.32;;;7.85;;
84905;SDS011;75170;42.116;21.740;2024-01-07T09:45:01;6.25;;;3.03;;
84905;SDS011;75170;42.116;21.740;2024-01-07T09:47:31;7.03;;;3.25;;
84905;SDS011;75170;42.116;21.740;2024-01-07T09:49:57;4.85;;;3.03;;
84905;SDS011;75170;42.116;21.740;2024-01-07T09:52:23;4.53;;;2.80;;
84905;SDS011;75170;42.116;21.740;2024-01-07T09:57:18;6.13;;;2.40;;
84905;SDS011;75170;42.116;21.740;2024-01-07T09:59:44;7.45;;;3.30;;
84905;SDS011;75170;42.116;21.740;2024-01-07T10:02:11;18.95;;;8.73;;
84905;SDS011;75170;42.116;21.740;2024-01-07T10:04:38;6.78;;;3.60;;
84905;SDS011;75170;42.116;21.740;2024-01-07T10:07:04;6.30;;;2.75;;
84905;SDS011;75170;42.116;21.740;2024-01-07T10:09:32;5.32;;;2.60;;
84905;SDS011;75170;42.116;21.740;2024-01-07T10:11:59;6.20;;;3.08;;
84905;SDS011;75170;42.116;21.740;2024-01-07T10:14:25;4.68;;;2.33;;
84905;SDS011;75170;42.116;21.740;2024-01-07T10:16:51;6.53;;;3.42;;
84905;SDS011;75170;42.116;21.740;2024-01-07T10:19:19;6.85;;;2.92;;
84905;SDS011;75170;42.116;21.740;2024-01-07T10:21:46;5.55;;;2.70;;
84905;SDS011;75170;42.116;21.740;2024-01-07T10:24:12;4.95;;;3.53;;
84905;SDS011;75170;42.116;21.740;2024-01-07T10:26:41;8.25;;;4.28;;
84905;SDS011;75170;42.116;21.740;2024-01-07T10:29:08;5.78;;;3.70;;
84905;SDS011;75170;42.116;21.740;2024-01-07T10:31:34;7.20;;;2.92;;
84905;SDS011;75170;42.116;21.740;2024-01-07T10:34:00;8.13;;;4.00;;
84905;SDS011;75170;42.116;21.740;2024-01-07T10:36:26;7.53;;;4.20;;
84905;SDS011;75170;42.116;21.740;2024-01-07T10:38:52;6.45;;;3.47;;
84905;SDS011;75170;42.116;21.740;2024-01-07T10:41:20;6.70;;;3.90;;
84905;SDS011;75170;42.116;21.740;2024-01-07T10:43:47;6.85;;;3.30;;
84905;SDS011;75170;42.116;21.740;2024-01-07T10:46:14;9.43;;;3.97;;
84905;SDS011;75170;42.116;21.740;2024-01-07T10:48:59;8.13;;;2.85;;
84905;SDS011;75170;42.116;21.740;2024-01-07T10:51:29;4.85;;;2.22;;
84905;SDS011;75170;42.116;21.740;2024-01-07T10:53:59;5.22;;;3.00;;
84905;SDS011;75170;42.116;21.740;2024-01-07T10:56:28;8.73;;;4.32;;
84905;SDS011;75170;42.116;21.740;2024-01-07T10:58:58;7.35;;;4.18;;
84905;SDS011;75170;42.116;21.740;2024-01-07T11:01:25;6.63;;;3.67;;
84905;SDS011;75170;42.116;21.740;2024-01-07T11:07:03;8.07;;;4.35;;
84905;SDS011;75170;42.116;21.740;2024-01-07T11:11:39;8.75;;;5.13;;
84905;SDS011;75170;42.116;21.740;2024-01-07T11:16:51;10.20;;;5.35;;
84905;SDS011;75170;42.116;21.740;2024-01-07T11:19:20;7.97;;;4.13;;
84905;SDS011;75170;42.116;21.740;2024-01-07T11:21:46;8.23;;;4.68;;
84905;SDS011;75170;42.116;21.740;2024-01-07T11:27:01;11.30;;;6.28;;
84905;SDS011;75170;42.116;21.740;2024-01-07T11:29:27;8.88;;;5.38;;
84905;SDS011;75170;42.116;21.740;2024-01-07T11:31:53;7.60;;;4.75;;
84905;SDS011;75170;42.116;21.740;2024-01-07T11:37:04;10.40;;;5.95;;
84905;SDS011;75170;42.116;21.740;2024-01-07T11:39:33;10.00;;;5.30;;
84905;SDS011;75170;42.116;21.740;2024-01-07T11:42:04;9.25;;;4.70;;
84905;SDS011;75170;42.116;21.740;2024-01-07T11:44:33;11.80;;;6.18;;
84905;SDS011;75170;42.116;21.740;2024-01-07T11:47:02;8.10;;;4.85;;
84905;SDS011;75170;42.116;21.740;2024-01-07T11:49:28;19.90;;;11.40;;
84905;SDS011;75170;42.116;21.740;2024-01-07T11:51:54;15.90;;;8.55;;
84905;SDS011;75170;42.116;21.740;2024-01-07T11:54:20;17.95;;;9.45;;
84905;SDS011;75170;42.116;21.740;2024-01-07T11:56:46;13.10;;;5.75;;
84905;SDS011;75170;42.116;21.740;2024-01-07T11:59:12;12.07;;;6.97;;
84905;SDS011;75170;42.116;21.740;2024-01-07T12:01:39;9.70;;;5.60;;
84905;SDS011;75170;42.116;21.740;2024-01-07T12:04:05;11.55;;;5.55;;
84905;SDS011;75170;42.116;21.740;2024-01-07T12:06:33;8.65;;;4.47;;
84905;SDS011;75170;42.116;21.740;2024-01-07T12:08:59;9.82;;;5.25;;
84905;SDS011;75170;42.116;21.740;2024-01-07T12:11:26;8.88;;;5.43;;
84905;SDS011;75170;42.116;21.740;2024-01-07T12:13:52;10.18;;;6.60;;
84905;SDS011;75170;42.116;21.740;2024-01-07T12:16:19;11.05;;;6.70;;
84905;SDS011;75170;42.116;21.740;2024-01-07T12:18:46;13.05;;;7.88;;
84905;SDS011;75170;42.116;21.740;2024-01-07T12:21:13;9.52;;;6.50;;
84905;SDS011;75170;42.116;21.740;2024-01-07T12:23:47;9.55;;;4.80;;
84905;SDS011;75170;42.116;21.740;2024-01-07T12:26:14;13.88;;;5.00;;
84905;SDS011;75170;42.116;21.740;2024-01-07T12:28:40;11.70;;;6.53;;
84905;SDS011;75170;42.116;21.740;2024-01-07T12:31:07;12.25;;;6.63;;
84905;SDS011;75170;42.116;21.740;2024-01-07T12:33:33;11.15;;;6.80;;
84905;SDS011;75170;42.116;21.740;2024-01-07T12:35:59;12.10;;;5.78;;
84905;SDS011;75170;42.116;21.740;2024-01-07T12:38:26;9.35;;;5.38;;
84905;SDS011;75170;42.116;21.740;2024-01-07T12:40:53;10.70;;;5.93;;
84905;SDS011;75170;42.116;21.740;2024-01-07T12:43:19;15.52;;;8.63;;
84905;SDS011;75170;42.116;21.740;2024-01-07T12:45:45;14.93;;;9.35;;
84905;SDS011;75170;42.116;21.740;2024-01-07T12:48:12;11.57;;;6.38;;
84905;SDS011;75170;42.116;21.740;2024-01-07T12:50:38;13.50;;;7.03;;
84905;SDS011;75170;42.116;21.740;2024-01-07T12:53:04;17.52;;;9.30;;
84905;SDS011;75170;42.116;21.740;2024-01-07T12:55:30;18.50;;;10.48;;
84905;SDS011;75170;42.116;21.740;2024-01-07T12:57:57;12.50;;;6.55;;
84905;SDS011;75170;42.116;21.740;2024-01-07T13:00:26;6.85;;;4.75;;
84905;SDS011;75170;42.116;21.740;2024-01-07T13:02:53;7.68;;;4.18;;
84905;SDS011;75170;42.116;21.740;2024-01-07T13:05:19;7.80;;;4.30;;
84905;SDS011;75170;42.116;21.740;2024-01-07T13:07:48;9.90;;;5.55;;
84905;SDS011;75170;42.116;21.740;2024-01-07T13:10:15;19.88;;;9.38;;
84905;SDS011;75170;42.116;21.740;2024-01-07T13:12:41;24.50;;;10.82;;
84905;SDS011;75170;42.116;21.740;2024-01-07T13:15:08;16.17;;;8.68;;
84905;SDS011;75170;42.116;21.740;2024-01-07T13:17:34;15.05;;;8.40;;
84905;SDS011;75170;42.116;21.740;2024-01-07T13:20:00;18.88;;;10.30;;
84905;SDS011;75170;42.116;21.740;2024-01-07T13:22:26;9.43;;;5.70;;
84905;SDS011;75170;42.116;21.740;2024-01-07T13:24:52;12.07;;;6.95;;
84905;SDS011;75170;42.116;21.740;2024-01-07T13:27:22;9.65;;;4.75;;
84905;SDS011;75170;42.116;21.740;2024-01-07T13:29:48;7.90;;;4.60;;
84905;SDS011;75170;42.116;21.740;2024-01-07T13:32:15;16.50;;;11.30;;
84905;SDS011;75170;42.116;21.740;2024-01-07T13:34:43;12.43;;;8.30;;
84905;SDS011;75170;42.116;21.740;2024-01-07T13:37:10;9.65;;;6.38;;
84905;SDS011;75170;42.116;21.740;2024-01-07T13:39:36;9.82;;;6.47;;
84905;SDS011;75170;42.116;21.740;2024-01-07T13:42:02;6.57;;;4.45;;
84905;SDS011;75170;42.116;21.740;2024-01-07T13:44:28;8.02;;;4.15;;
84905;SDS011;75170;42.116;21.740;2024-01-07T13:46:55;7.10;;;4.20;;
84905;SDS011;75170;42.116;21.740;2024-01-07T13:49:21;6.57;;;4.22;;
84905;SDS011;75170;42.116;21.740;2024-01-07T13:51:47;6.05;;;4.80;;
84905;SDS011;75170;42.116;21.740;2024-01-07T13:54:14;63.33;;;24.05;;
84905;SDS011;75170;42.116;21.740;2024-01-07T13:56:41;36.90;;;15.20;;
84905;SDS011;75170;42.116;21.740;2024-01-07T13:59:09;27.30;;;13.30;;
84905;SDS011;75170;42.116;21.740;2024-01-07T14:01:35;12.80;;;7.43;;
84905;SDS011;75170;42.116;21.740;2024-01-07T14:04:01;18.52;;;9.32;;
84905;SDS011;75170;42.116;21.740;2024-01-07T14:06:27;14.15;;;7.38;;
84905;SDS011;75170;42.116;21.740;2024-01-07T14:08:53;11.00;;;5.50;;
84905;SDS011;75170;42.116;21.740;2024-01-07T14:11:19;11.52;;;7.15;;
84905;SDS011;75170;42.116;21.740;2024-01-07T14:13:46;7.10;;;5.30;;
84905;SDS011;75170;42.116;21.740;2024-01-07T14:16:13;9.75;;;4.95;;
84905;SDS011;75170;42.116;21.740;2024-01-07T14:18:39;18.08;;;7.60;;
84905;SDS011;75170;42.116;21.740;2024-01-07T14:21:05;20.58;;;10.35;;
84905;SDS011;75170;42.116;21.740;2024-01-07T14:23:33;16.77;;;10.88;;
84905;SDS011;75170;42.116;21.740;2024-01-07T14:25:59;13.63;;;8.57;;
84905;SDS011;75170;42.116;21.740;2024-01-07T14:28:25;12.63;;;7.82;;
84905;SDS011;75170;42.116;21.740;2024-01-07T14:30:51;11.85;;;7.13;;
84905;SDS011;75170;42.116;21.740;2024-01-07T14:33:17;12.80;;;6.70;;
84905;SDS011;75170;42.116;21.740;2024-01-07T14:35:44;13.98;;;8.23;;
84905;SDS011;75170;42.116;21.740;2024-01-07T14:38:10;12.88;;;7.78;;